sensor_id;sensor_type;location;lat;lon;timestamp;P1;durP1;ratioP1;P2;durP2;ratioP2
47089;SDS011;32840;52.516;13.294;2023-06-26T00:00:53;15.90;;;11.95;;
47089;SDS011;32840;52.516;13.294;2023-06-26T00:03:39;13.05;;;10.65;;
47089;SDS011;32840;52.516;13.294;2023-06-26T00:06:25;14.02;;;9.95;;
47089;SDS011;32840;52.516;13.294;2023-06-26T00:09:10;13.55;;;11.30;;
47089;SDS011;32840;52.516;13.294;2023-06-26T00:11:57;13.02;;;10.75;;
47089;SDS011;32840;52.516;13.294;2023-06-26T00:14:42;13.60;;;11.07;;
47089;SDS011;32840;52.516;13.294;2023-06-26T00:17:28;14.18;;;11.40;;
47089;SDS011;32840;52.516;13.294;2023-06-26T00:20:14;13.77;;;10.82;;
47089;SDS011;32840;52.516;13.294;2023-06-26T00:23:00;16.40;;;10.48;;
47089;SDS011;32840;52.516;13.294;2023-06-26T00:25:48;14.90;;;11.05;;
47089;SDS011;32840;52.516;13.294;2023-06-26T00:28:33;15.70;;;11.98;;
47089;SDS011;32840;52.516;13.294;2023-06-26T00:31:17;17.10;;;11.75;;
47089;SDS011;32840;52.516;13.294;2023-06-26T00:34:02;16.58;;;11.35;;
47089;SDS011;32840;52.516;13.294;2023-06-26T00:36:48;13.57;;;11.35;;
47089;SDS011;32840;52.516;13.294;2023-06-26T00:39:36;13.23;;;11.50;;
47089;SDS011;32840;52.516;13.294;2023-06-26T00:42:21;14.10;;;11.13;;
47089;SDS011;32840;52.516;13.294;2023-06-26T00:45:09;12.15;;;10.68;;
47089;SDS011;32840;52.516;13.294;2023-06-26T00:47:54;14.80;;;11.20;;
47089;SDS011;32840;52.516;13.294;2023-06-26T00:50:40;13.15;;;11.23;;
47089;SDS011;32840;52.516;13.294;2023-06-26T00:53:26;12.43;;;11.10;;
47089;SDS011;32840;52.516;13.294;2023-06-26T00:56:11;14.13;;;11.15;;
47089;SDS011;32840;52.516;13.294;2023-06-26T00:58:57;13.90;;;10.65;;
47089;SDS011;32840;52.516;13.294;2023-06-26T01:01:43;13.80;;;11.48;;
47089;SDS011;32840;52.516;13.294;2023-06-26T01:04:28;13.43;;;11.48;;
47089;SDS011;32840;52.516;13.294;2023-06-26T01:07:16;12.07;;;10.77;;
47089;SDS011;32840;52.516;13.294;2023-06-26T01:10:06;12.10;;;10.77;;
47089;SDS011;32840;52.516;13.294;2023-06-26T01:12:51;13.90;;;10.45;;
47089;SDS011;32840;52.516;13.294;2023-06-26T01:15:36;12.52;;;10.93;;
47089;SDS011;32840;52.516;13.294;2023-06-26T01:18:21;13.13;;;10.95;;
47089;SDS011;32840;52.516;13.294;2023-06-26T01:21:07;12.10;;;10.85;;
47089;SDS011;32840;52.516;13.294;2023-06-26T01:27:04;13.27;;;10.75;;
47089;SDS011;32840;52.516;13.294;2023-06-26T01:29:51;11.88;;;10.07;;
47089;SDS011;32840;52.516;13.294;2023-06-26T01:32:37;12.68;;;10.63;;
47089;SDS011;32840;52.516;13.294;2023-06-26T01:35:25;12.52;;;10.68;;
47089;SDS011;32840;52.516;13.294;2023-06-26T01:38:18;13.45;;;10.75;;
47089;SDS011;32840;52.516;13.294;2023-06-26T01:41:05;13.63;;;10.50;;
47089;SDS011;32840;52.516;13.294;2023-06-26T01:43:57;14.23;;;10.23;;
47089;SDS011;32840;52.516;13.294;2023-06-26T01:49:54;13.18;;;10.65;;
47089;SDS011;32840;52.516;13.294;2023-06-26T01:53:03;12.90;;;10.48;;
47089;SDS011;32840;52.516;13.294;2023-06-26T01:55:54;11.95;;;10.48;;
47089;SDS011;32840;52.516;13.294;2023-06-26T01:58:46;11.93;;;10.70;;
47089;SDS011;32840;52.516;13.294;2023-06-26T02:01:32;12.40;;;9.90;;
47089;SDS011;32840;52.516;13.294;2023-06-26T02:04:17;14.32;;;11.30;;
47089;SDS011;32840;52.516;13.294;2023-06-26T02:07:03;12.90;;;10.70;;
47089;SDS011;32840;52.516;13.294;2023-06-26T02:09:47;12.82;;;11.40;;
47089;SDS011;32840;52.516;13.294;2023-06-26T02:12:33;13.57;;;10.55;;
47089;SDS011;32840;52.516;13.294;2023-06-26T02:15:19;13.43;;;10.50;;
47089;SDS011;32840;52.516;13.294;2023-06-26T02:18:04;15.80;;;10.82;;
47089;SDS011;32840;52.516;13.294;2023-06-26T02:20:49;11.63;;;10.38;;
47089;SDS011;32840;52.516;13.294;2023-06-26T02:23:34;12.82;;;10.93;;
47089;SDS011;32840;52.516;13.294;2023-06-26T02:26:19;12.40;;;10.07;;
47089;SDS011;32840;52.516;13.294;2023-06-26T02:29:05;13.70;;;11.10;;
47089;SDS011;32840;52.516;13.294;2023-06-26T02:31:49;15.60;;;11.43;;
47089;SDS011;32840;52.516;13.294;2023-06-26T02:34:34;12.30;;;11.00;;
47089;SDS011;32840;52.516;13.294;2023-06-26T02:37:21;12.57;;;11.18;;
47089;SDS011;32840;52.516;13.294;2023-06-26T02:40:07;12.23;;;10.93;;
47089;SDS011;32840;52.516;13.294;2023-06-26T02:42:56;12.45;;;10.95;;
47089;SDS011;32840;52.516;13.294;2023-06-26T02:45:40;11.20;;;9.95;;
47089;SDS011;32840;52.516;13.294;2023-06-26T02:48:25;12.05;;;10.63;;
47089;SDS011;32840;52.516;13.294;2023-06-26T02:51:10;12.52;;;11.23;;
47089;SDS011;32840;52.516;13.294;2023-06-26T02:53:56;12.60;;;11.10;;
47089;SDS011;32840;52.516;13.294;2023-06-26T02:56:41;11.55;;;10.45;;
47089;SDS011;32840;52.516;13.294;2023-06-26T02:59:26;11.73;;;10.35;;
47089;SDS011;32840;52.516;13.294;2023-06-26T03:02:13;13.57;;;11.20;;
47089;SDS011;32840;52.516;13.294;2023-06-26T03:04:59;12.60;;;10.65;;
47089;SDS011;32840;52.516;13.294;2023-06-26T03:07:44;12.18;;;10.93;;
47089;SDS011;32840;52.516;13.294;2023-06-26T03:10:29;14.60;;;11.80;;
47089;SDS011;32840;52.516;13.294;2023-06-26T03:13:14;12.98;;;11.52;;
47089;SDS011;32840;52.516;13.294;2023-06-26T03:16:02;14.50;;;11.73;;
47089;SDS011;32840;52.516;13.294;2023-06-26T03:18:50;15.40;;;12.45;;
47089;SDS011;32840;52.516;13.294;2023-06-26T03:21:34;15.27;;;12.65;;
47089;SDS011;32840;52.516;13.294;2023-06-26T03:24:19;16.05;;;13.10;;
47089;SDS011;32840;52.516;13.294;2023-06-26T03:27:04;13.77;;;12.15;;
47089;SDS011;32840;52.516;13.294;2023-06-26T03:29:49;15.43;;;12.07;;
47089;SDS011;32840;52.516;13.294;2023-06-26T03:32:34;14.80;;;12.02;;
47089;SDS011;32840;52.516;13.294;2023-06-26T03:35:20;14.65;;;13.05;;
47089;SDS011;32840;52.516;13.294;2023-06-26T03:38:07;23.48;;;13.63;;
47089;SDS011;32840;52.516;13.294;2023-06-26T03:40:52;14.05;;;12.60;;
47089;SDS011;32840;52.516;13.294;2023-06-26T03:43:36;16.20;;;12.82;;
47089;SDS011;32840;52.516;13.294;2023-06-26T03:46:23;14.80;;;12.23;;
47089;SDS011;32840;52.516;13.294;2023-06-26T03:49:10;14.02;;;12.52;;
47089;SDS011;32840;52.516;13.294;2023-06-26T03:51:55;15.85;;;13.15;;
47089;SDS011;32840;52.516;13.294;2023-06-26T03:54:41;14.55;;;13.02;;
47089;SDS011;32840;52.516;13.294;2023-06-26T03:57:26;14.93;;;12.52;;
47089;SDS011;32840;52.516;13.294;2023-06-26T04:00:11;17.77;;;13.13;;
47089;SDS011;32840;52.516;13.294;2023-06-26T04:02:57;15.00;;;13.40;;
47089;SDS011;32840;52.516;13.294;2023-06-26T04:05:42;14.40;;;12.80;;
47089;SDS011;32840;52.516;13.294;2023-06-26T04:08:27;15.65;;;13.70;;
47089;SDS011;32840;52.516;13.294;2023-06-26T04:11:11;13.93;;;12.43;;
47089;SDS011;32840;52.516;13.294;2023-06-26T04:13:56;13.88;;;12.35;;
47089;SDS011;32840;52.516;13.294;2023-06-26T04:16:41;14.13;;;12.60;;
47089;SDS011;32840;52.516;13.294;2023-06-26T04:19:36;15.50;;;12.18;;
47089;SDS011;32840;52.516;13.294;2023-06-26T04:22:20;12.50;;;11.20;;
47089;SDS011;32840;52.516;13.294;2023-06-26T04:25:05;14.27;;;11.70;;
47089;SDS011;32840;52.516;13.294;2023-06-26T04:27:51;20.48;;;13.25;;
47089;SDS011;32840;52.516;13.294;2023-06-26T04:30:36;13.80;;;12.23;;
47089;SDS011;32840;52.516;13.294;2023-06-26T04:33:24;18.85;;;12.05;;
47089;SDS011;32840;52.516;13.294;2023-06-26T04:36:12;13.93;;;11.80;;
47089;SDS011;32840;52.516;13.294;2023-06-26T04:38:58;13.15;;;11.75;;
47089;SDS011;32840;52.516;13.294;2023-06-26T04:41:44;13.05;;;11.65;;
47089;SDS011;32840;52.516;13.294;2023-06-26T04:44:29;13.40;;;11.85;;
47089;SDS011;32840;52.516;13.294;2023-06-26T04:47:14;13.85;;;12.00;;
47089;SDS011;32840;52.516;13.294;2023-06-26T04:50:00;14.30;;;12.85;;
47089;SDS011;32840;52.516;13.294;2023-06-26T04:52:45;13.90;;;12.38;;
47089;SDS011;32840;52.516;13.294;2023-06-26T04:55:30;14.38;;;12.25;;
47089;SDS011;32840;52.516;13.294;2023-06-26T04:58:15;16.23;;;12.30;;
47089;SDS011;32840;52.516;13.294;2023-06-26T05:01:00;13.25;;;11.85;;
47089;SDS011;32840;52.516;13.294;2023-06-26T05:03:45;13.82;;;12.32;;
47089;SDS011;32840;52.516;13.294;2023-06-26T05:06:31;15.70;;;11.45;;
47089;SDS011;32840;52.516;13.294;2023-06-26T05:09:16;15.18;;;11.73;;
47089;SDS011;32840;52.516;13.294;2023-06-26T05:12:02;13.45;;;10.80;;
47089;SDS011;32840;52.516;13.294;2023-06-26T05:14:48;16.90;;;11.93;;
47089;SDS011;32840;52.516;13.294;2023-06-26T05:17:34;14.18;;;10.93;;
47089;SDS011;32840;52.516;13.294;2023-06-26T05:20:20;11.82;;;10.52;;
47089;SDS011;32840;52.516;13.294;2023-06-26T05:23:05;14.93;;;12.57;;
47089;SDS011;32840;52.516;13.294;2023-06-26T05:25:50;15.70;;;11.70;;
47089;SDS011;32840;52.516;13.294;2023-06-26T05:28:35;13.30;;;10.93;;
47089;SDS011;32840;52.516;13.294;2023-06-26T05:31:20;14.23;;;10.65;;
47089;SDS011;32840;52.516;13.294;2023-06-26T05:34:06;11.75;;;10.23;;
47089;SDS011;32840;52.516;13.294;2023-06-26T05:36:55;14.00;;;11.68;;
47089;SDS011;32840;52.516;13.294;2023-06-26T05:39:43;15.27;;;12.73;;
47089;SDS011;32840;52.516;13.294;2023-06-26T05:42:28;15.82;;;11.70;;
47089;SDS011;32840;52.516;13.294;2023-06-26T05:45:13;15.90;;;12.05;;
47089;SDS011;32840;52.516;13.294;2023-06-26T05:47:58;13.80;;;12.35;;
47089;SDS011;32840;52.516;13.294;2023-06-26T05:50:43;19.55;;;13.38;;
47089;SDS011;32840;52.516;13.294;2023-06-26T05:53:32;17.05;;;12.73;;
47089;SDS011;32840;52.516;13.294;2023-06-26T05:56:17;13.48;;;12.02;;
47089;SDS011;32840;52.516;13.294;2023-06-26T05:59:02;14.88;;;11.27;;
47089;SDS011;32840;52.516;13.294;2023-06-26T06:01:51;13.43;;;11.18;;
47089;SDS011;32840;52.516;13.294;2023-06-26T06:04:35;12.40;;;11.02;;
47089;SDS011;32840;52.516;13.294;2023-06-26T06:07:21;16.27;;;10.93;;
47089;SDS011;32840;52.516;13.294;2023-06-26T06:10:06;16.92;;;10.48;;
47089;SDS011;32840;52.516;13.294;2023-06-26T06:12:52;12.95;;;10.43;;
47089;SDS011;32840;52.516;13.294;2023-06-26T06:15:38;12.90;;;10.50;;
47089;SDS011;32840;52.516;13.294;2023-06-26T06:18:23;16.20;;;10.43;;
47089;SDS011;32840;52.516;13.294;2023-06-26T06:21:08;13.13;;;10.35;;
47089;SDS011;32840;52.516;13.294;2023-06-26T06:23:54;12.52;;;9.73;;
47089;SDS011;32840;52.516;13.294;2023-06-26T06:26:39;11.52;;;8.55;;
47089;SDS011;32840;52.516;13.294;2023-06-26T06:29:26;12.00;;;9.30;;
47089;SDS011;32840;52.516;13.294;2023-06-26T06:32:11;12.05;;;9.38;;
47089;SDS011;32840;52.516;13.294;2023-06-26T06:34:58;10.68;;;8.65;;
47089;SDS011;32840;52.516;13.294;2023-06-26T06:37:43;10.07;;;8.50;;
47089;SDS011;32840;52.516;13.294;2023-06-26T06:40:29;13.63;;;8.43;;
47089;SDS011;32840;52.516;13.294;2023-06-26T06:43:15;11.00;;;8.35;;
47089;SDS011;32840;52.516;13.294;2023-06-26T06:46:00;10.68;;;8.20;;
47089;SDS011;32840;52.516;13.294;2023-06-26T06:48:47;19.02;;;17.00;;
47089;SDS011;32840;52.516;13.294;2023-06-26T06:51:34;9.45;;;8.23;;
47089;SDS011;32840;52.516;13.294;2023-06-26T06:54:19;10.15;;;8.40;;
47089;SDS011;32840;52.516;13.294;2023-06-26T06:57:04;11.05;;;8.07;;
47089;SDS011;32840;52.516;13.294;2023-06-26T06:59:49;10.18;;;7.28;;
47089;SDS011;32840;52.516;13.294;2023-06-26T07:02:35;7.95;;;7.15;;
47089;SDS011;32840;52.516;13.294;2023-06-26T07:05:22;9.32;;;7.47;;
47089;SDS011;32840;52.516;13.294;2023-06-26T07:08:07;8.48;;;7.68;;
47089;SDS011;32840;52.516;13.294;2023-06-26T07:10:53;9.07;;;6.97;;
47089;SDS011;32840;52.516;13.294;2023-06-26T07:13:38;8.00;;;7.20;;
47089;SDS011;32840;52.516;13.294;2023-06-26T07:16:23;8.20;;;7.05;;
47089;SDS011;32840;52.516;13.294;2023-06-26T07:19:13;8.23;;;7.10;;
47089;SDS011;32840;52.516;13.294;2023-06-26T07:21:59;9.90;;;7.63;;
47089;SDS011;32840;52.516;13.294;2023-06-26T07:24:46;9.05;;;7.90;;
47089;SDS011;32840;52.516;13.294;2023-06-26T07:27:31;8.23;;;7.40;;
47089;SDS011;32840;52.516;13.294;2023-06-26T07:30:19;8.85;;;7.95;;
47089;SDS011;32840;52.516;13.294;2023-06-26T07:33:03;8.60;;;7.25;;
47089;SDS011;32840;52.516;13.294;2023-06-26T07:35:49;10.68;;;7.65;;
47089;SDS011;32840;52.516;13.294;2023-06-26T07:38:35;9.05;;;7.70;;
47089;SDS011;32840;52.516;13.294;2023-06-26T07:41:25;8.30;;;6.65;;
47089;SDS011;32840;52.516;13.294;2023-06-26T07:44:11;8.55;;;6.97;;
47089;SDS011;32840;52.516;13.294;2023-06-26T07:47:01;8.90;;;7.07;;
47089;SDS011;32840;52.516;13.294;2023-06-26T07:49:46;13.80;;;8.85;;
47089;SDS011;32840;52.516;13.294;2023-06-26T07:52:31;8.30;;;6.30;;
47089;SDS011;32840;52.516;13.294;2023-06-26T07:55:16;9.70;;;6.80;;
47089;SDS011;32840;52.516;13.294;2023-06-26T07:58:01;7.80;;;6.70;;
47089;SDS011;32840;52.516;13.294;2023-06-26T08:00:46;7.00;;;5.95;;
47089;SDS011;32840;52.516;13.294;2023-06-26T08:03:31;8.23;;;6.32;;
47089;SDS011;32840;52.516;13.294;2023-06-26T08:06:16;7.13;;;6.22;;
47089;SDS011;32840;52.516;13.294;2023-06-26T08:09:01;7.50;;;6.07;;
47089;SDS011;32840;52.516;13.294;2023-06-26T08:11:48;8.23;;;6.07;;
47089;SDS011;32840;52.516;13.294;2023-06-26T08:14:33;7.57;;;6.57;;
47089;SDS011;32840;52.516;13.294;2023-06-26T08:17:19;6.45;;;5.63;;
47089;SDS011;32840;52.516;13.294;2023-06-26T08:20:04;7.88;;;5.95;;
47089;SDS011;32840;52.516;13.294;2023-06-26T08:22:52;6.88;;;5.40;;
47089;SDS011;32840;52.516;13.294;2023-06-26T08:25:40;8.15;;;5.38;;
47089;SDS011;32840;52.516;13.294;2023-06-26T08:28:26;6.28;;;5.60;;
47089;SDS011;32840;52.516;13.294;2023-06-26T08:31:11;6.32;;;5.28;;
47089;SDS011;32840;52.516;13.294;2023-06-26T08:33:56;6.47;;;5.20;;
47089;SDS011;32840;52.516;13.294;2023-06-26T08:36:42;12.05;;;5.72;;
47089;SDS011;32840;52.516;13.294;2023-06-26T08:39:34;5.90;;;5.28;;
47089;SDS011;32840;52.516;13.294;2023-06-26T08:42:21;5.68;;;5.10;;
47089;SDS011;32840;52.516;13.294;2023-06-26T08:45:06;5.72;;;5.22;;
47089;SDS011;32840;52.516;13.294;2023-06-26T08:47:52;5.80;;;4.90;;
47089;SDS011;32840;52.516;13.294;2023-06-26T08:50:40;6.28;;;4.80;;
47089;SDS011;32840;52.516;13.294;2023-06-26T08:53:36;6.18;;;4.90;;
47089;SDS011;32840;52.516;13.294;2023-06-26T08:56:36;7.65;;;6.90;;
47089;SDS011;32840;52.516;13.294;2023-06-26T08:59:27;6.32;;;5.72;;
47089;SDS011;32840;52.516;13.294;2023-06-26T09:02:15;6.53;;;4.93;;
47089;SDS011;32840;52.516;13.294;2023-06-26T09:05:03;6.85;;;5.38;;
47089;SDS011;32840;52.516;13.294;2023-06-26T09:07:49;7.18;;;4.80;;
47089;SDS011;32840;52.516;13.294;2023-06-26T09:10:35;14.75;;;6.05;;
47089;SDS011;32840;52.516;13.294;2023-06-26T09:13:20;6.38;;;4.88;;
47089;SDS011;32840;52.516;13.294;2023-06-26T09:16:07;8.10;;;4.85;;
47089;SDS011;32840;52.516;13.294;2023-06-26T09:18:57;6.22;;;5.32;;
47089;SDS011;32840;52.516;13.294;2023-06-26T09:21:43;5.18;;;4.57;;
47089;SDS011;32840;52.516;13.294;2023-06-26T09:24:28;6.38;;;4.70;;
47089;SDS011;32840;52.516;13.294;2023-06-26T09:27:15;7.90;;;5.22;;
47089;SDS011;32840;52.516;13.294;2023-06-26T09:30:04;6.03;;;4.15;;
47089;SDS011;32840;52.516;13.294;2023-06-26T09:32:53;4.82;;;4.32;;
47089;SDS011;32840;52.516;13.294;2023-06-26T09:35:38;8.40;;;4.72;;
47089;SDS011;32840;52.516;13.294;2023-06-26T09:38:23;5.20;;;4.68;;
47089;SDS011;32840;52.516;13.294;2023-06-26T09:41:07;5.60;;;5.03;;
47089;SDS011;32840;52.516;13.294;2023-06-26T09:44:00;6.15;;;4.70;;
47089;SDS011;32840;52.516;13.294;2023-06-26T09:46:49;8.45;;;6.00;;
47089;SDS011;32840;52.516;13.294;2023-06-26T09:49:35;7.65;;;4.82;;
47089;SDS011;32840;52.516;13.294;2023-06-26T09:52:20;6.70;;;4.40;;
47089;SDS011;32840;52.516;13.294;2023-06-26T09:55:09;7.18;;;4.80;;
47089;SDS011;32840;52.516;13.294;2023-06-26T09:57:55;7.85;;;6.32;;
47089;SDS011;32840;52.516;13.294;2023-06-26T10:00:44;5.78;;;5.18;;
47089;SDS011;32840;52.516;13.294;2023-06-26T10:03:29;8.43;;;5.18;;
47089;SDS011;32840;52.516;13.294;2023-06-26T10:06:14;6.72;;;4.43;;
47089;SDS011;32840;52.516;13.294;2023-06-26T10:09:09;6.90;;;4.63;;
47089;SDS011;32840;52.516;13.294;2023-06-26T10:12:10;6.32;;;4.05;;
47089;SDS011;32840;52.516;13.294;2023-06-26T10:15:05;7.88;;;5.00;;
47089;SDS011;32840;52.516;13.294;2023-06-26T10:18:04;8.88;;;5.70;;
47089;SDS011;32840;52.516;13.294;2023-06-26T10:20:51;9.15;;;5.93;;
47089;SDS011;32840;52.516;13.294;2023-06-26T10:23:40;11.15;;;10.13;;
47089;SDS011;32840;52.516;13.294;2023-06-26T10:26:28;8.00;;;6.80;;
47089;SDS011;32840;52.516;13.294;2023-06-26T10:29:15;4.68;;;4.15;;
47089;SDS011;32840;52.516;13.294;2023-06-26T10:32:02;5.90;;;4.40;;
47089;SDS011;32840;52.516;13.294;2023-06-26T10:34:51;5.45;;;3.97;;
47089;SDS011;32840;52.516;13.294;2023-06-26T10:37:48;7.18;;;4.35;;
47089;SDS011;32840;52.516;13.294;2023-06-26T10:40:45;6.43;;;4.30;;
47089;SDS011;32840;52.516;13.294;2023-06-26T10:43:33;5.53;;;4.47;;
47089;SDS011;32840;52.516;13.294;2023-06-26T10:46:18;5.93;;;4.60;;
47089;SDS011;32840;52.516;13.294;2023-06-26T10:49:04;6.88;;;4.30;;
47089;SDS011;32840;52.516;13.294;2023-06-26T10:52:00;5.45;;;4.70;;
47089;SDS011;32840;52.516;13.294;2023-06-26T10:54:49;6.75;;;4.53;;
47089;SDS011;32840;52.516;13.294;2023-06-26T10:57:33;6.72;;;5.57;;
47089;SDS011;32840;52.516;13.294;2023-06-26T11:00:22;7.03;;;4.20;;
47089;SDS011;32840;52.516;13.294;2023-06-26T11:03:22;5.70;;;5.15;;
47089;SDS011;32840;52.516;13.294;2023-06-26T11:06:20;6.70;;;5.40;;
47089;SDS011;32840;52.516;13.294;2023-06-26T11:12:00;5.93;;;4.25;;
47089;SDS011;32840;52.516;13.294;2023-06-26T11:14:49;7.90;;;3.97;;
47089;SDS011;32840;52.516;13.294;2023-06-26T11:17:35;5.47;;;4.32;;
47089;SDS011;32840;52.516;13.294;2023-06-26T11:20:20;8.25;;;5.13;;
47089;SDS011;32840;52.516;13.294;2023-06-26T11:23:05;5.57;;;4.60;;
47089;SDS011;32840;52.516;13.294;2023-06-26T11:25:52;4.85;;;4.20;;
47089;SDS011;32840;52.516;13.294;2023-06-26T11:28:40;8.73;;;4.30;;
47089;SDS011;32840;52.516;13.294;2023-06-26T11:31:40;5.97;;;4.78;;
47089;SDS011;32840;52.516;13.294;2023-06-26T11:34:30;5.30;;;4.72;;
47089;SDS011;32840;52.516;13.294;2023-06-26T11:37:17;10.80;;;4.88;;
47089;SDS011;32840;52.516;13.294;2023-06-26T11:40:19;8.30;;;4.63;;
47089;SDS011;32840;52.516;13.294;2023-06-26T11:43:15;4.88;;;4.15;;
47089;SDS011;32840;52.516;13.294;2023-06-26T11:46:00;5.72;;;4.45;;
47089;SDS011;32840;52.516;13.294;2023-06-26T11:48:53;7.75;;;4.72;;
47089;SDS011;32840;52.516;13.294;2023-06-26T11:51:42;5.50;;;4.65;;
47089;SDS011;32840;52.516;13.294;2023-06-26T11:54:28;7.18;;;5.05;;
47089;SDS011;32840;52.516;13.294;2023-06-26T11:57:14;4.72;;;4.22;;
47089;SDS011;32840;52.516;13.294;2023-06-26T12:00:21;7.78;;;4.95;;
47089;SDS011;32840;52.516;13.294;2023-06-26T12:03:09;9.43;;;8.20;;
47089;SDS011;32840;52.516;13.294;2023-06-26T12:05:55;9.32;;;4.85;;
47089;SDS011;32840;52.516;13.294;2023-06-26T12:08:40;6.57;;;5.13;;
47089;SDS011;32840;52.516;13.294;2023-06-26T12:11:26;8.27;;;5.18;;
47089;SDS011;32840;52.516;13.294;2023-06-26T12:14:12;6.65;;;4.70;;
47089;SDS011;32840;52.516;13.294;2023-06-26T12:17:15;8.90;;;5.78;;
47089;SDS011;32840;52.516;13.294;2023-06-26T12:20:01;9.00;;;5.32;;
47089;SDS011;32840;52.516;13.294;2023-06-26T12:22:49;7.90;;;6.90;;
47089;SDS011;32840;52.516;13.294;2023-06-26T12:28:22;5.72;;;5.15;;
47089;SDS011;32840;52.516;13.294;2023-06-26T12:31:14;6.32;;;5.03;;
47089;SDS011;32840;52.516;13.294;2023-06-26T12:34:08;6.65;;;4.75;;
47089;SDS011;32840;52.516;13.294;2023-06-26T12:37:03;8.27;;;5.43;;
47089;SDS011;32840;52.516;13.294;2023-06-26T12:39:59;7.38;;;5.78;;
47089;SDS011;32840;52.516;13.294;2023-06-26T12:42:43;6.05;;;5.45;;
47089;SDS011;32840;52.516;13.294;2023-06-26T12:45:37;6.63;;;5.32;;
47089;SDS011;32840;52.516;13.294;2023-06-26T12:48:36;5.75;;;5.05;;
47089;SDS011;32840;52.516;13.294;2023-06-26T12:51:22;6.30;;;5.63;;
47089;SDS011;32840;52.516;13.294;2023-06-26T12:54:10;6.90;;;6.13;;
47089;SDS011;32840;52.516;13.294;2023-06-26T12:56:56;6.32;;;5.72;;
47089;SDS011;32840;52.516;13.294;2023-06-26T12:59:41;11.85;;;6.05;;
47089;SDS011;32840;52.516;13.294;2023-06-26T13:02:26;7.40;;;6.28;;
47089;SDS011;32840;52.516;13.294;2023-06-26T13:05:11;8.30;;;6.22;;
47089;SDS011;32840;52.516;13.294;2023-06-26T13:07:56;9.52;;;6.15;;
47089;SDS011;32840;52.516;13.294;2023-06-26T13:10:43;8.27;;;5.85;;
47089;SDS011;32840;52.516;13.294;2023-06-26T13:13:30;8.07;;;5.80;;
47089;SDS011;32840;52.516;13.294;2023-06-26T13:16:19;7.93;;;5.47;;
47089;SDS011;32840;52.516;13.294;2023-06-26T13:19:06;8.32;;;5.75;;
47089;SDS011;32840;52.516;13.294;2023-06-26T13:21:52;9.07;;;6.95;;
47089;SDS011;32840;52.516;13.294;2023-06-26T13:24:37;11.43;;;7.20;;
47089;SDS011;32840;52.516;13.294;2023-06-26T13:27:25;9.77;;;6.70;;
47089;SDS011;32840;52.516;13.294;2023-06-26T13:30:10;8.02;;;6.13;;
47089;SDS011;32840;52.516;13.294;2023-06-26T13:32:55;9.02;;;6.72;;
47089;SDS011;32840;52.516;13.294;2023-06-26T13:35:41;7.13;;;5.72;;
47089;SDS011;32840;52.516;13.294;2023-06-26T13:38:26;9.85;;;7.40;;
47089;SDS011;32840;52.516;13.294;2023-06-26T13:41:14;7.00;;;6.32;;
47089;SDS011;32840;52.516;13.294;2023-06-26T13:43:59;8.48;;;6.32;;
47089;SDS011;32840;52.516;13.294;2023-06-26T13:46:44;8.05;;;6.55;;
47089;SDS011;32840;52.516;13.294;2023-06-26T13:49:28;7.20;;;6.50;;
47089;SDS011;32840;52.516;13.294;2023-06-26T13:52:13;7.07;;;6.38;;
47089;SDS011;32840;52.516;13.294;2023-06-26T13:54:58;13.98;;;10.90;;
47089;SDS011;32840;52.516;13.294;2023-06-26T13:57:48;17.85;;;13.70;;
47089;SDS011;32840;52.516;13.294;2023-06-26T14:00:34;9.73;;;7.55;;
47089;SDS011;32840;52.516;13.294;2023-06-26T14:03:19;7.80;;;7.05;;
47089;SDS011;32840;52.516;13.294;2023-06-26T14:06:08;10.50;;;7.93;;
47089;SDS011;32840;52.516;13.294;2023-06-26T14:08:53;14.48;;;12.65;;
47089;SDS011;32840;52.516;13.294;2023-06-26T14:11:38;11.35;;;6.13;;
47089;SDS011;32840;52.516;13.294;2023-06-26T14:14:23;14.55;;;6.10;;
47089;SDS011;32840;52.516;13.294;2023-06-26T14:17:08;18.48;;;6.80;;
47089;SDS011;32840;52.516;13.294;2023-06-26T14:19:55;12.38;;;5.93;;
47089;SDS011;32840;52.516;13.294;2023-06-26T14:22:39;19.77;;;8.38;;
47089;SDS011;32840;52.516;13.294;2023-06-26T14:25:24;32.03;;;9.65;;
47089;SDS011;32840;52.516;13.294;2023-06-26T14:28:14;17.30;;;7.13;;
47089;SDS011;32840;52.516;13.294;2023-06-26T14:31:03;14.32;;;7.63;;
47089;SDS011;32840;52.516;13.294;2023-06-26T14:33:49;21.20;;;8.65;;
47089;SDS011;32840;52.516;13.294;2023-06-26T14:36:35;15.52;;;9.63;;
47089;SDS011;32840;52.516;13.294;2023-06-26T14:39:23;18.08;;;10.23;;
47089;SDS011;32840;52.516;13.294;2023-06-26T14:42:09;17.20;;;9.15;;
47089;SDS011;32840;52.516;13.294;2023-06-26T14:44:54;21.25;;;9.35;;
47089;SDS011;32840;52.516;13.294;2023-06-26T14:47:39;13.13;;;10.30;;
47089;SDS011;32840;52.516;13.294;2023-06-26T14:50:24;21.10;;;14.18;;
47089;SDS011;32840;52.516;13.294;2023-06-26T14:53:09;13.93;;;10.90;;
47089;SDS011;32840;52.516;13.294;2023-06-26T14:55:53;26.35;;;12.40;;
47089;SDS011;32840;52.516;13.294;2023-06-26T14:58:39;26.98;;;11.60;;
47089;SDS011;32840;52.516;13.294;2023-06-26T15:01:24;17.52;;;8.73;;
47089;SDS011;32840;52.516;13.294;2023-06-26T15:04:09;15.07;;;8.80;;
47089;SDS011;32840;52.516;13.294;2023-06-26T15:06:56;15.93;;;10.25;;
47089;SDS011;32840;52.516;13.294;2023-06-26T15:09:46;14.30;;;7.80;;
47089;SDS011;32840;52.516;13.294;2023-06-26T15:12:31;10.82;;;7.30;;
47089;SDS011;32840;52.516;13.294;2023-06-26T15:15:18;25.15;;;18.77;;
47089;SDS011;32840;52.516;13.294;2023-06-26T15:18:03;13.73;;;8.55;;
47089;SDS011;32840;52.516;13.294;2023-06-26T15:20:49;12.30;;;6.50;;
47089;SDS011;32840;52.516;13.294;2023-06-26T15:23:35;24.90;;;21.98;;
47089;SDS011;32840;52.516;13.294;2023-06-26T15:26:20;13.48;;;7.30;;
47089;SDS011;32840;52.516;13.294;2023-06-26T15:29:05;9.82;;;6.35;;
47089;SDS011;32840;52.516;13.294;2023-06-26T15:32:06;9.77;;;6.57;;
47089;SDS011;32840;52.516;13.294;2023-06-26T15:34:52;9.73;;;6.60;;
47089;SDS011;32840;52.516;13.294;2023-06-26T15:37:38;9.20;;;6.43;;
47089;SDS011;32840;52.516;13.294;2023-06-26T15:40:23;12.43;;;6.38;;
47089;SDS011;32840;52.516;13.294;2023-06-26T15:43:09;12.98;;;7.13;;
47089;SDS011;32840;52.516;13.294;2023-06-26T15:45:54;10.95;;;7.13;;
47089;SDS011;32840;52.516;13.294;2023-06-26T15:48:58;16.23;;;8.52;;
47089;SDS011;32840;52.516;13.294;2023-06-26T15:52:08;13.40;;;8.20;;
47089;SDS011;32840;52.516;13.294;2023-06-26T15:54:56;14.68;;;8.50;;
47089;SDS011;32840;52.516;13.294;2023-06-26T15:57:43;20.77;;;18.35;;
47089;SDS011;32840;52.516;13.294;2023-06-26T16:00:28;13.18;;;11.20;;
47089;SDS011;32840;52.516;13.294;2023-06-26T16:03:15;11.48;;;8.05;;
47089;SDS011;32840;52.516;13.294;2023-06-26T16:06:05;18.08;;;10.20;;
47089;SDS011;32840;52.516;13.294;2023-06-26T16:08:50;12.52;;;8.02;;
47089;SDS011;32840;52.516;13.294;2023-06-26T16:11:37;11.20;;;9.93;;
47089;SDS011;32840;52.516;13.294;2023-06-26T16:14:24;10.80;;;7.60;;
47089;SDS011;32840;52.516;13.294;2023-06-26T16:17:10;17.40;;;12.85;;
47089;SDS011;32840;52.516;13.294;2023-06-26T16:20:12;10.88;;;8.80;;
47089;SDS011;32840;52.516;13.294;2023-06-26T16:22:58;11.52;;;8.27;;
47089;SDS011;32840;52.516;13.294;2023-06-26T16:25:43;10.50;;;7.75;;
47089;SDS011;32840;52.516;13.294;2023-06-26T16:28:30;31.58;;;23.02;;